createdAt,value
2022-10-16T00:00:36.857Z,4.33
2022-10-16T00:01:39.053Z,4.10
2022-10-16T00:02:40.617Z,4.10
2022-10-16T00:03:44.454Z,4.40
2022-10-16T00:04:46.033Z,4.03
2022-10-16T00:05:47.753Z,4.00
2022-10-16T00:06:49.307Z,4.10
2022-10-16T00:07:50.950Z,4.73
2022-10-16T00:08:53.521Z,4.63
2022-10-16T00:09:55.051Z,4.13
2022-10-16T00:11:07.229Z,4.33
2022-10-16T00:12:08.759Z,4.70
2022-10-16T00:13:10.351Z,4.37
2022-10-16T00:14:15.215Z,4.47
2022-10-16T00:15:17.333Z,4.30
2022-10-16T00:16:19.643Z,4.43
2022-10-16T00:17:21.268Z,4.63
2022-10-16T00:18:22.832Z,4.57
2022-10-16T00:19:24.392Z,4.23
2022-10-16T00:20:25.963Z,4.33
2022-10-16T00:21:29.935Z,4.17
2022-10-16T00:22:31.691Z,4.17
2022-10-16T00:23:33.522Z,4.47
2022-10-16T00:24:35.061Z,4.63
2022-10-16T00:25:37.206Z,4.70
2022-10-16T00:26:40.191Z,5.30
2022-10-16T00:27:41.697Z,4.40
2022-10-16T00:28:43.444Z,5.40
2022-10-16T00:29:45.021Z,5.03
2022-10-16T00:30:46.535Z,4.73
2022-10-16T00:31:48.059Z,4.17
2022-10-16T00:32:49.588Z,4.27
2022-10-16T00:33:52.070Z,4.47
2022-10-16T00:34:55.711Z,4.67
2022-10-16T00:35:59.749Z,4.80
2022-10-16T00:37:01.287Z,4.73
2022-10-16T00:38:02.829Z,4.73
2022-10-16T00:39:04.509Z,4.70
2022-10-16T00:40:06.619Z,4.23
2022-10-16T00:41:10.820Z,4.47
2022-10-16T00:42:17.442Z,4.07
2022-10-16T00:43:42.407Z,5.00
2022-10-16T00:44:53.619Z,4.30
2022-10-16T00:45:55.283Z,5.00
2022-10-16T00:46:56.858Z,4.30
2022-10-16T00:47:58.514Z,4.20
2022-10-16T00:49:07.603Z,4.90
2022-10-16T00:50:17.698Z,4.63
2022-10-16T00:51:22.955Z,4.73
2022-10-16T00:52:24.725Z,5.07
2022-10-16T00:53:27.079Z,4.30
2022-10-16T00:54:33.078Z,5.17
2022-10-16T00:55:37.665Z,4.47
2022-10-16T00:56:43.037Z,4.80
2022-10-16T00:57:45.258Z,3.97
2022-10-16T00:58:47.174Z,4.60
2022-10-16T00:59:48.818Z,4.43
2022-10-16T01:00:50.398Z,4.70
2022-10-16T01:01:52.939Z,4.60
2022-10-16T01:03:01.215Z,4.13
2022-10-16T01:04:02.738Z,4.57
2022-10-16T01:05:06.078Z,4.30
2022-10-16T01:06:36.338Z,4.53
2022-10-16T01:07:44.454Z,4.83
2022-10-16T01:09:15.133Z,4.40
2022-10-16T01:10:28.966Z,4.30
2022-10-16T01:11:50.514Z,4.67
2022-10-16T01:13:30.839Z,4.57
2022-10-16T01:14:59.750Z,4.30
2022-10-16T01:16:39.393Z,4.40
2022-10-16T01:17:58.838Z,4.57
2022-10-16T01:19:11.021Z,4.80
2022-10-16T01:20:27.152Z,4.83
2022-10-16T01:21:40.150Z,4.77
2022-10-16T01:22:59.837Z,4.93
2022-10-16T01:24:29.310Z,4.90
2022-10-16T01:25:54.348Z,4.50
2022-10-16T01:27:08.094Z,4.90
2022-10-16T01:28:14.226Z,4.37
2022-10-16T01:29:30.828Z,4.43
2022-10-16T01:30:34.770Z,4.63
2022-10-16T01:31:40.586Z,4.57
2022-10-16T01:32:45.794Z,4.00
2022-10-16T01:33:57.259Z,4.73
2022-10-16T01:35:18.992Z,4.47
2022-10-16T01:36:27.922Z,3.93
2022-10-16T01:37:49.980Z,4.27
2022-10-16T01:38:55.682Z,4.47
2022-10-16T01:40:01.611Z,4.70
2022-10-16T01:41:12.546Z,4.50
2022-10-16T01:42:22.900Z,4.50
2022-10-16T01:43:54.188Z,4.73
2022-10-16T01:44:57.241Z,4.07
2022-10-16T01:46:00.392Z,4.60
2022-10-16T01:47:02.230Z,4.30
2022-10-16T01:48:06.759Z,4.23
2022-10-16T01:49:11.385Z,4.47
2022-10-16T01:50:15.918Z,4.43
2022-10-16T01:51:20.579Z,4.53
2022-10-16T01:52:27.316Z,4.53
2022-10-16T01:53:30.752Z,4.40
2022-10-16T01:54:35.069Z,4.47
2022-10-16T01:55:44.794Z,4.60
2022-10-16T01:56:47.934Z,4.40
2022-10-16T01:57:52.790Z,4.70
2022-10-16T01:58:59.083Z,4.83
2022-10-16T02:00:05.941Z,4.33
2022-10-16T02:01:10.173Z,4.30
2022-10-16T02:02:14.299Z,4.63
2022-10-16T02:03:19.899Z,4.07
2022-10-16T02:04:35.589Z,4.17
2022-10-16T02:05:55.275Z,4.50
2022-10-16T02:06:57.294Z,4.63
2022-10-16T02:08:00.560Z,4.90
2022-10-16T02:09:04.865Z,4.70
2022-10-16T02:10:06.686Z,4.93
2022-10-16T02:11:08.240Z,4.50
2022-10-16T02:12:16.457Z,4.63
2022-10-16T02:13:24.603Z,4.33
2022-10-16T02:14:27.350Z,4.63
2022-10-16T02:15:28.961Z,4.73
2022-10-16T02:16:43.188Z,4.70
2022-10-16T02:17:44.717Z,4.33
2022-10-16T02:18:46.298Z,4.73
2022-10-16T02:19:51.257Z,4.57
2022-10-16T02:21:03.906Z,4.43
2022-10-16T02:22:07.898Z,4.50
2022-10-16T02:23:13.158Z,4.80
2022-10-16T02:24:20.696Z,4.60
2022-10-16T02:25:33.325Z,4.43
2022-10-16T02:27:01.084Z,4.77
2022-10-16T02:28:14.863Z,4.67
2022-10-16T02:29:20.333Z,4.33
2022-10-16T02:30:28.644Z,4.20
2022-10-16T02:31:35.700Z,4.60
2022-10-16T02:32:42.050Z,4.17
2022-10-16T02:33:46.858Z,4.17
2022-10-16T02:34:50.272Z,3.87
2022-10-16T02:35:52.474Z,4.20
2022-10-16T02:36:55.962Z,4.40
2022-10-16T02:37:58.606Z,5.43
2022-10-16T02:39:02.169Z,4.67
2022-10-16T02:40:06.046Z,5.40
2022-10-16T02:41:07.843Z,4.90
2022-10-16T02:42:16.198Z,5.10
2022-10-16T02:43:18.150Z,4.90
2022-10-16T02:44:19.648Z,5.37
2022-10-16T02:45:21.873Z,4.93
2022-10-16T02:46:23.571Z,5.30
2022-10-16T02:47:25.128Z,4.83
2022-10-16T02:48:26.661Z,4.97
2022-10-16T02:49:28.190Z,5.13
2022-10-16T02:50:29.809Z,5.43
2022-10-16T02:51:31.407Z,5.07
2022-10-16T02:52:32.986Z,5.00
2022-10-16T02:53:34.550Z,5.10
2022-10-16T02:54:36.051Z,5.00
2022-10-16T02:55:37.574Z,5.43
2022-10-16T02:56:39.090Z,5.00
2022-10-16T02:57:41.520Z,5.60
2022-10-16T02:58:43.249Z,5.77
2022-10-16T02:59:45.138Z,5.10
2022-10-16T03:00:47.013Z,5.83
2022-10-16T03:01:48.544Z,6.13
2022-10-16T03:02:50.073Z,5.60
2022-10-16T03:03:51.606Z,5.67
2022-10-16T03:04:53.116Z,5.40
2022-10-16T03:05:54.607Z,5.87
2022-10-16T03:06:56.121Z,5.50
2022-10-16T03:07:57.664Z,5.47
2022-10-16T03:08:59.188Z,5.87
2022-10-16T03:10:03.952Z,5.30
2022-10-16T03:11:05.839Z,5.70
2022-10-16T03:12:07.709Z,5.07
2022-10-16T03:13:09.243Z,5.20
2022-10-16T03:14:10.759Z,5.73
2022-10-16T03:15:12.305Z,5.27
2022-10-16T03:16:13.838Z,5.57
2022-10-16T03:17:17.731Z,5.50
2022-10-16T03:18:19.396Z,5.50
2022-10-16T03:19:20.935Z,5.87
2022-10-16T03:20:22.487Z,5.73
2022-10-16T03:21:23.992Z,5.77
2022-10-16T03:22:25.538Z,5.40
2022-10-16T03:23:27.145Z,5.60
2022-10-16T03:24:28.659Z,5.87
2022-10-16T03:25:30.232Z,5.53
2022-10-16T03:26:31.773Z,6.00
2022-10-16T03:27:33.319Z,5.57
2022-10-16T03:28:34.849Z,5.37
2022-10-16T03:29:36.448Z,5.40
2022-10-16T03:30:38.054Z,5.27
2022-10-16T03:31:39.630Z,5.53
2022-10-16T03:32:41.178Z,5.40
2022-10-16T03:33:42.769Z,5.60
2022-10-16T03:34:44.575Z,5.77
2022-10-16T03:35:53.094Z,5.67
2022-10-16T03:36:55.073Z,5.90
2022-10-16T03:37:57.468Z,5.90
2022-10-16T03:38:59.011Z,5.70
2022-10-16T03:40:00.594Z,5.40
2022-10-16T03:41:02.137Z,5.40
2022-10-16T03:42:03.769Z,5.50
2022-10-16T03:43:05.395Z,5.40
2022-10-16T03:44:07.082Z,5.80
2022-10-16T03:45:09.416Z,5.50
2022-10-16T03:46:11.522Z,4.83
2022-10-16T03:47:13.084Z,5.37
2022-10-16T03:48:14.592Z,5.50
2022-10-16T03:49:16.380Z,4.77
2022-10-16T03:50:18.009Z,5.43
2022-10-16T03:51:19.565Z,5.73
2022-10-16T03:52:21.092Z,5.33
2022-10-16T03:53:22.658Z,4.87
2022-10-16T03:54:24.315Z,4.80
2022-10-16T03:55:25.962Z,4.90
2022-10-16T03:56:27.532Z,5.23
2022-10-16T03:57:29.477Z,5.07
2022-10-16T03:58:31.377Z,5.27
2022-10-16T03:59:33.378Z,4.97
2022-10-16T04:00:35.725Z,4.47
2022-10-16T04:01:37.293Z,5.00
2022-10-16T04:02:39.103Z,4.93
2022-10-16T04:03:40.770Z,4.90
2022-10-16T04:04:42.308Z,4.90
2022-10-16T04:05:43.831Z,5.00
2022-10-16T04:06:45.374Z,5.20
2022-10-16T04:07:46.942Z,5.43
2022-10-16T04:08:48.566Z,5.20
2022-10-16T04:09:50.168Z,5.20
2022-10-16T04:10:52.035Z,5.00
2022-10-16T04:11:53.678Z,5.60
2022-10-16T04:12:58.289Z,5.13
2022-10-16T04:14:00.055Z,6.00
2022-10-16T04:15:01.643Z,5.90
2022-10-16T04:16:03.313Z,5.73
2022-10-16T04:17:04.849Z,5.60
2022-10-16T04:18:06.929Z,5.40
2022-10-16T04:19:08.497Z,5.63
2022-10-16T04:20:10.262Z,5.83
2022-10-16T04:21:11.817Z,5.57
2022-10-16T04:22:14.215Z,5.50
2022-10-16T04:23:15.841Z,5.60
2022-10-16T04:24:17.358Z,5.70
2022-10-16T04:25:18.911Z,5.40
2022-10-16T04:26:20.472Z,5.50
2022-10-16T04:27:21.975Z,5.97
2022-10-16T04:28:23.625Z,6.03
2022-10-16T04:29:25.224Z,5.73
2022-10-16T04:30:26.884Z,6.33
2022-10-16T04:31:28.542Z,6.13
2022-10-16T04:32:30.104Z,5.93
2022-10-16T04:33:31.637Z,6.37
2022-10-16T04:34:33.191Z,5.70
2022-10-16T04:35:34.802Z,5.50
2022-10-16T04:36:36.345Z,5.70
2022-10-16T04:37:37.873Z,5.77
2022-10-16T04:38:40.473Z,5.83
2022-10-16T04:39:42.001Z,6.27
2022-10-16T04:40:43.761Z,6.00
2022-10-16T04:41:45.329Z,6.13
2022-10-16T04:42:46.862Z,5.57
2022-10-16T04:43:48.574Z,5.50
2022-10-16T04:44:50.087Z,6.33
2022-10-16T04:45:52.048Z,6.30
2022-10-16T04:46:53.639Z,5.57
2022-10-16T04:47:58.502Z,6.03
2022-10-16T04:49:00.048Z,5.80
2022-10-16T04:50:03.345Z,7.23
2022-10-16T04:51:05.011Z,6.50
2022-10-16T04:52:07.090Z,6.37
2022-10-16T04:53:08.743Z,6.40
2022-10-16T04:54:11.054Z,6.40
2022-10-16T04:55:12.579Z,6.00
2022-10-16T04:56:14.243Z,6.00
2022-10-16T04:57:15.765Z,6.10
2022-10-16T04:58:17.350Z,6.20
2022-10-16T04:59:20.157Z,5.80
2022-10-16T05:00:21.854Z,6.07
2022-10-16T05:01:23.558Z,5.70
2022-10-16T05:02:25.198Z,6.03
2022-10-16T05:03:26.792Z,5.40
2022-10-16T05:04:28.358Z,5.97
2022-10-16T05:05:29.890Z,5.40
2022-10-16T05:06:31.541Z,5.37
2022-10-16T05:07:33.060Z,5.60
2022-10-16T05:08:34.747Z,6.00
2022-10-16T05:09:36.271Z,5.20
2022-10-16T05:10:37.803Z,5.90
2022-10-16T05:11:39.424Z,5.63
2022-10-16T05:12:40.941Z,5.60
2022-10-16T05:13:42.480Z,6.27
2022-10-16T05:14:44.018Z,5.63
2022-10-16T05:15:49.264Z,5.70
2022-10-16T05:16:50.905Z,6.10
2022-10-16T05:17:55.923Z,5.50
2022-10-16T05:19:22.460Z,5.70
2022-10-16T05:20:18.968Z,5.80
2022-10-16T05:21:21.434Z,5.67
2022-10-16T05:22:23.246Z,6.07
2022-10-16T05:23:24.760Z,6.40
2022-10-16T05:24:26.339Z,6.53
2022-10-16T05:25:27.957Z,6.37
2022-10-16T05:26:29.474Z,6.67
2022-10-16T05:27:31.061Z,6.40
2022-10-16T05:28:33.065Z,6.70
2022-10-16T05:29:34.688Z,5.90
2022-10-16T05:30:38.475Z,6.53
2022-10-16T05:31:40.015Z,6.40
2022-10-16T05:32:41.681Z,5.93
2022-10-16T05:33:45.099Z,6.13
2022-10-16T05:34:46.806Z,6.43
2022-10-16T05:35:48.644Z,6.13
2022-10-16T05:36:50.357Z,6.60
2022-10-16T05:37:51.933Z,7.37
2022-10-16T05:38:53.548Z,6.43
2022-10-16T05:39:55.062Z,6.27
2022-10-16T05:40:57.578Z,6.43
2022-10-16T05:41:59.119Z,6.53
2022-10-16T05:43:00.651Z,6.03
2022-10-16T05:44:05.297Z,6.90
2022-10-16T05:45:09.379Z,6.77
2022-10-16T05:46:10.899Z,6.67
2022-10-16T05:47:13.853Z,6.70
2022-10-16T05:48:15.758Z,6.37
2022-10-16T05:49:17.869Z,6.50
2022-10-16T05:50:19.447Z,6.03
2022-10-16T05:51:21.083Z,6.17
2022-10-16T05:52:22.644Z,6.30
2022-10-16T05:53:26.551Z,5.97
2022-10-16T05:54:28.064Z,5.80
2022-10-16T05:55:29.560Z,5.50
2022-10-16T05:56:31.070Z,5.80
2022-10-16T05:57:32.597Z,5.60
2022-10-16T05:58:38.634Z,5.60
2022-10-16T05:59:40.186Z,5.60
2022-10-16T06:00:41.749Z,5.67
2022-10-16T06:01:43.319Z,5.50
2022-10-16T06:02:45.046Z,5.73
2022-10-16T06:03:46.657Z,5.87
2022-10-16T06:04:48.245Z,5.37
2022-10-16T06:05:49.893Z,6.10
2022-10-16T06:06:51.487Z,5.73
2022-10-16T06:07:53.025Z,6.20
2022-10-16T06:08:55.916Z,5.63
2022-10-16T06:09:57.426Z,5.77
2022-10-16T06:11:24.311Z,5.70
2022-10-16T06:12:25.874Z,5.97
2022-10-16T06:13:27.397Z,6.07
2022-10-16T06:14:28.982Z,6.03
2022-10-16T06:15:30.559Z,5.57
2022-10-16T06:16:32.092Z,5.60
2022-10-16T06:17:33.603Z,5.50
2022-10-16T06:18:35.267Z,5.80
2022-10-16T06:19:36.804Z,6.10
2022-10-16T06:20:38.879Z,6.50
2022-10-16T06:21:40.471Z,5.90
2022-10-16T06:22:42.090Z,6.00
2022-10-16T06:24:47.424Z,5.53
2022-10-16T06:25:48.968Z,5.67
2022-10-16T06:26:50.479Z,5.73
2022-10-16T06:27:52.011Z,5.37
2022-10-16T06:28:56.355Z,5.77
2022-10-16T06:29:58.629Z,5.60
2022-10-16T06:31:04.261Z,6.00
2022-10-16T06:32:08.919Z,5.30
2022-10-16T06:33:11.781Z,5.93
2022-10-16T06:34:13.335Z,5.70
2022-10-16T06:35:14.933Z,5.67
2022-10-16T06:36:18.301Z,6.10
2022-10-16T06:37:19.856Z,6.40
2022-10-16T06:38:21.369Z,5.80
2022-10-16T06:39:22.877Z,6.00
2022-10-16T06:40:24.547Z,6.10
2022-10-16T06:41:26.045Z,5.50
2022-10-16T06:42:28.116Z,5.27
2022-10-16T06:43:33.599Z,6.17
2022-10-16T06:44:35.162Z,5.90
2022-10-16T06:45:36.693Z,6.03
2022-10-16T06:46:38.214Z,6.00
2022-10-16T06:47:39.776Z,6.00
2022-10-16T06:48:41.363Z,5.60
2022-10-16T06:49:42.894Z,5.67
2022-10-16T06:50:44.433Z,5.97
2022-10-16T06:51:45.966Z,5.63
2022-10-16T06:52:47.510Z,5.33
2022-10-16T06:54:06.927Z,5.83
2022-10-16T06:55:08.868Z,6.43
2022-10-16T06:56:16.595Z,5.53
2022-10-16T06:57:18.118Z,5.87
2022-10-16T06:58:20.222Z,5.70
2022-10-16T06:59:22.651Z,5.50
2022-10-16T07:01:31.413Z,5.43
2022-10-16T07:02:33.041Z,5.70
2022-10-16T07:03:36.885Z,6.17
2022-10-16T07:04:38.410Z,5.87
2022-10-16T07:05:43.611Z,5.73
2022-10-16T07:06:45.239Z,5.40
2022-10-16T07:07:46.793Z,5.77
2022-10-16T07:08:49.245Z,6.33
2022-10-16T07:09:50.782Z,6.00
2022-10-16T07:11:00.649Z,5.63
2022-10-16T07:12:02.203Z,6.30
2022-10-16T07:13:04.362Z,6.40
2022-10-16T07:14:06.429Z,5.50
2022-10-16T07:15:08.798Z,5.93
2022-10-16T07:16:13.429Z,5.50
2022-10-16T07:17:15.016Z,5.50
2022-10-16T07:18:16.570Z,5.20
2022-10-16T07:19:19.025Z,5.43
2022-10-16T07:20:21.165Z,5.40
2022-10-16T07:21:23.772Z,5.47
2022-10-16T07:22:25.703Z,5.50
2022-10-16T07:23:27.339Z,5.30
2022-10-16T07:24:28.889Z,5.70
2022-10-16T07:25:30.397Z,5.63
2022-10-16T07:26:34.887Z,5.67
2022-10-16T07:28:40.789Z,5.50
2022-10-16T07:29:42.657Z,5.53
2022-10-16T07:30:44.187Z,5.90
2022-10-16T07:31:46.215Z,5.90
2022-10-16T07:32:47.750Z,5.80
2022-10-16T07:33:50.389Z,5.50
2022-10-16T07:34:52.181Z,5.33
2022-10-16T07:35:55.657Z,5.10
2022-10-16T07:36:57.221Z,5.80
2022-10-16T07:37:58.805Z,5.97
2022-10-16T07:39:00.615Z,5.87
2022-10-16T07:40:02.309Z,5.60
2022-10-16T07:41:06.365Z,5.43
2022-10-16T07:42:08.738Z,5.40
2022-10-16T07:43:10.792Z,5.30
2022-10-16T07:44:12.346Z,5.70
2022-10-16T07:45:13.974Z,5.47
2022-10-16T07:46:17.342Z,5.30
2022-10-16T07:47:18.964Z,5.67
2022-10-16T07:48:21.643Z,5.17
2022-10-16T07:49:23.165Z,4.80
2022-10-16T07:50:24.650Z,5.10
2022-10-16T07:51:27.241Z,5.10
2022-10-16T07:52:29.257Z,5.10
2022-10-16T07:53:31.126Z,5.10
2022-10-16T07:54:32.685Z,5.57
2022-10-16T07:55:34.239Z,5.37
2022-10-16T07:56:37.648Z,5.40
2022-10-16T07:57:41.462Z,5.17
2022-10-16T07:58:43.311Z,5.13
2022-10-16T07:59:44.817Z,5.00
2022-10-16T08:00:46.453Z,4.97
2022-10-16T08:01:49.658Z,5.07
2022-10-16T08:02:51.229Z,4.67
2022-10-16T08:03:53.171Z,5.17
2022-10-16T08:04:54.746Z,5.20
2022-10-16T08:05:58.183Z,5.17
2022-10-16T08:06:59.701Z,5.30
2022-10-16T08:08:02.994Z,5.17
2022-10-16T08:09:05.074Z,5.10
2022-10-16T08:10:06.935Z,4.93
2022-10-16T08:11:09.065Z,4.97
2022-10-16T08:12:12.014Z,5.07
2022-10-16T08:13:16.276Z,5.20
2022-10-16T08:14:18.108Z,5.10
2022-10-16T08:15:20.499Z,5.17
2022-10-16T08:16:22.475Z,5.63
2022-10-16T08:17:24.309Z,5.30
2022-10-16T08:18:26.154Z,5.67
2022-10-16T08:19:27.727Z,4.77
2022-10-16T08:20:31.025Z,5.10
2022-10-16T08:21:32.554Z,5.10
2022-10-16T08:22:34.066Z,4.70
2022-10-16T08:23:35.703Z,5.37
2022-10-16T08:24:38.004Z,4.20
2022-10-16T08:25:40.751Z,4.50
2022-10-16T08:26:42.306Z,4.53
2022-10-16T08:27:43.932Z,4.27
2022-10-16T08:28:46.122Z,4.20
2022-10-16T08:29:49.741Z,4.43
2022-10-16T08:30:51.322Z,10.77
2022-10-16T08:31:52.940Z,5.27
2022-10-16T08:32:54.539Z,4.37
2022-10-16T08:33:56.094Z,4.30
2022-10-16T08:34:57.679Z,4.57
2022-10-16T08:35:59.639Z,4.43
2022-10-16T08:37:01.148Z,4.20
2022-10-16T08:38:06.444Z,4.20
2022-10-16T08:39:08.247Z,4.33
2022-10-16T08:40:20.886Z,4.40
2022-10-16T08:41:31.255Z,4.47
2022-10-16T08:42:50.933Z,4.57
2022-10-16T08:44:29.181Z,4.43
2022-10-16T08:45:30.755Z,4.83
2022-10-16T08:46:51.303Z,4.83
2022-10-16T08:48:14.178Z,4.23
2022-10-16T08:49:16.295Z,4.23
2022-10-16T08:50:28.094Z,4.50
2022-10-16T08:51:38.011Z,4.20
2022-10-16T08:52:45.036Z,4.70
2022-10-16T08:53:58.749Z,4.20
2022-10-16T08:55:00.368Z,3.97
2022-10-16T08:56:01.962Z,4.50
2022-10-16T08:57:21.293Z,4.40
2022-10-16T08:58:31.351Z,4.13
2022-10-16T08:59:32.953Z,4.23
2022-10-16T09:00:34.607Z,4.27
2022-10-16T09:01:42.426Z,4.43
2022-10-16T09:02:53.959Z,4.50
2022-10-16T09:04:20.260Z,4.20
2022-10-16T09:05:37.864Z,4.77
2022-10-16T09:06:46.708Z,4.23
2022-10-16T09:08:13.160Z,4.83
2022-10-16T09:09:30.426Z,4.60
2022-10-16T09:10:45.173Z,4.93
2022-10-16T09:12:14.419Z,4.00
2022-10-16T09:13:27.886Z,4.87
2022-10-16T09:15:03.888Z,5.10
2022-10-16T09:16:19.106Z,5.20
2022-10-16T09:17:51.978Z,4.67
2022-10-16T09:19:16.037Z,4.47
2022-10-16T09:20:59.741Z,4.93
2022-10-16T09:22:11.548Z,4.57
2022-10-16T09:23:17.774Z,4.23
2022-10-16T09:24:26.894Z,4.63
2022-10-16T09:25:30.147Z,4.60
2022-10-16T09:26:31.673Z,4.97
2022-10-16T09:27:33.306Z,5.00
2022-10-16T09:28:34.883Z,4.87
2022-10-16T09:29:36.488Z,4.70
2022-10-16T09:30:39.424Z,4.60
2022-10-16T09:31:42.693Z,4.53
2022-10-16T09:32:46.722Z,4.80
2022-10-16T09:34:07.209Z,4.37
2022-10-16T09:35:21.539Z,4.77
2022-10-16T09:36:26.207Z,4.77
2022-10-16T09:37:28.107Z,4.70
2022-10-16T09:38:36.886Z,4.00
2022-10-16T09:39:52.957Z,4.00
2022-10-16T09:40:59.358Z,3.83
2022-10-16T09:42:05.344Z,3.93
2022-10-16T09:43:32.378Z,4.40
2022-10-16T09:44:34.111Z,4.00
2022-10-16T09:45:35.696Z,4.67
2022-10-16T09:46:39.188Z,4.73
2022-10-16T09:47:44.338Z,4.67
2022-10-16T09:48:49.810Z,4.30
2022-10-16T09:49:53.923Z,4.23
2022-10-16T09:51:04.891Z,4.10
2022-10-16T09:52:14.796Z,4.10
2022-10-16T09:53:18.616Z,4.20
2022-10-16T09:54:22.380Z,4.27
2022-10-16T09:55:23.916Z,4.60
2022-10-16T09:56:31.676Z,4.13
2022-10-16T09:57:33.280Z,4.53
2022-10-16T09:58:34.808Z,4.00
2022-10-16T09:59:47.989Z,4.80
2022-10-16T10:00:54.990Z,4.37
2022-10-16T10:01:56.811Z,4.23
2022-10-16T10:02:58.564Z,3.80
2022-10-16T10:04:03.536Z,4.50
2022-10-16T10:05:22.902Z,4.13
2022-10-16T10:06:33.984Z,4.03
2022-10-16T10:07:43.984Z,3.60
2022-10-16T10:09:20.470Z,4.20
2022-10-16T10:10:30.096Z,4.27
2022-10-16T10:11:58.858Z,3.87
2022-10-16T10:13:01.009Z,3.63
2022-10-16T10:14:07.927Z,4.23
2022-10-16T10:15:13.711Z,4.27
2022-10-16T10:16:24.932Z,4.10
2022-10-16T10:17:29.928Z,3.90
2022-10-16T10:18:32.903Z,3.90
2022-10-16T10:19:48.640Z,3.87
2022-10-16T10:21:15.642Z,3.90
2022-10-16T10:22:37.355Z,3.50
2022-10-16T10:23:39.166Z,3.63
2022-10-16T10:24:40.747Z,4.07
2022-10-16T10:25:56.560Z,4.27
2022-10-16T10:27:19.696Z,3.63
2022-10-16T10:28:43.144Z,4.67
2022-10-16T10:30:09.256Z,3.57
2022-10-16T10:31:26.007Z,4.63
2022-10-16T10:32:35.925Z,7.30
2022-10-16T10:33:56.617Z,3.60
2022-10-16T10:35:14.531Z,3.87
2022-10-16T10:36:38.582Z,3.80
2022-10-16T10:37:56.690Z,3.90
2022-10-16T10:39:02.319Z,3.67
2022-10-16T10:40:06.974Z,3.40
2022-10-16T10:41:35.682Z,3.60
2022-10-16T10:42:58.738Z,3.60
2022-10-16T10:44:21.165Z,3.60
2022-10-16T10:45:32.249Z,3.90
2022-10-16T10:46:33.741Z,4.20
2022-10-16T10:47:47.588Z,3.40
2022-10-16T10:48:52.719Z,3.43
2022-10-16T10:50:15.324Z,4.10
2022-10-16T10:51:55.547Z,3.80
2022-10-16T10:53:10.837Z,4.57
2022-10-16T10:54:15.185Z,4.40
2022-10-16T10:55:35.042Z,3.57
2022-10-16T10:56:57.841Z,3.25
2022-10-16T10:57:59.307Z,3.70
2022-10-16T10:59:22.788Z,3.63
2022-10-16T11:00:29.371Z,4.03
2022-10-16T11:01:42.830Z,3.30
2022-10-16T11:03:10.643Z,3.88
2022-10-16T11:04:15.165Z,3.50
2022-10-16T11:05:41.215Z,3.60
2022-10-16T11:06:49.635Z,3.30
2022-10-16T11:08:08.838Z,3.50
2022-10-16T11:09:19.630Z,4.32
2022-10-16T11:10:28.238Z,4.40
2022-10-16T11:11:41.171Z,3.60
2022-10-16T11:12:50.053Z,3.63
2022-10-16T11:13:54.422Z,3.67
2022-10-16T11:15:06.490Z,4.00
2022-10-16T11:16:21.373Z,4.13
2022-10-16T11:17:30.311Z,3.77
2022-10-16T11:18:40.185Z,4.82
2022-10-16T11:20:05.601Z,6.97
2022-10-16T11:21:13.532Z,6.03
2022-10-16T11:22:38.580Z,4.07
2022-10-16T11:23:42.645Z,3.67
2022-10-16T11:24:50.865Z,3.43
2022-10-16T11:25:55.222Z,3.38
2022-10-16T11:27:01.491Z,3.63
2022-10-16T11:28:12.514Z,4.07
2022-10-16T11:29:21.430Z,3.60
2022-10-16T11:30:29.375Z,3.70
2022-10-16T11:31:59.216Z,5.50
2022-10-16T11:33:09.897Z,5.07
2022-10-16T11:34:32.985Z,4.18
2022-10-16T11:35:53.047Z,3.50
2022-10-16T11:36:57.409Z,7.75
2022-10-16T11:38:03.006Z,4.43
2022-10-16T11:39:10.618Z,5.60
2022-10-16T11:40:34.790Z,4.82
2022-10-16T11:41:38.798Z,4.43
2022-10-16T11:42:47.721Z,3.92
2022-10-16T11:44:07.795Z,4.10
2022-10-16T11:45:25.617Z,3.85
2022-10-16T11:46:28.340Z,3.95
2022-10-16T11:47:59.204Z,4.00
2022-10-16T11:49:13.301Z,3.85
2022-10-16T11:50:26.526Z,4.15
2022-10-16T11:51:54.744Z,3.85
2022-10-16T11:53:12.418Z,3.80
2022-10-16T11:54:36.607Z,3.88
2022-10-16T11:55:44.596Z,3.80
2022-10-16T11:56:52.417Z,3.92
2022-10-16T11:58:01.232Z,3.90
2022-10-16T11:59:14.830Z,3.70
2022-10-16T12:00:29.997Z,3.83
2022-10-16T12:01:40.143Z,3.53
2022-10-16T12:02:47.102Z,3.85
2022-10-16T12:04:06.390Z,3.58
2022-10-16T12:05:16.313Z,3.95
2022-10-16T12:06:32.183Z,3.80
2022-10-16T12:07:39.695Z,3.65
2022-10-16T12:08:41.810Z,3.97
2022-10-16T12:09:44.068Z,4.05
2022-10-16T12:10:48.325Z,3.50
2022-10-16T12:11:49.937Z,4.18
2022-10-16T12:12:51.707Z,4.20
2022-10-16T12:14:13.552Z,3.40
2022-10-16T12:15:40.491Z,3.50
2022-10-16T12:16:55.294Z,3.80
2022-10-16T12:17:57.617Z,3.50
2022-10-16T12:19:17.282Z,3.58
2022-10-16T12:20:20.533Z,3.70
2022-10-16T12:21:32.350Z,3.42
2022-10-16T12:22:36.912Z,3.83
2022-10-16T12:23:56.037Z,3.28
2022-10-16T12:24:58.530Z,3.60
2022-10-16T12:26:03.397Z,4.05
2022-10-16T12:27:08.174Z,3.58
2022-10-16T12:28:15.646Z,3.53
2022-10-16T12:29:37.854Z,3.70
2022-10-16T12:30:39.522Z,4.13
2022-10-16T12:31:54.489Z,3.67
2022-10-16T12:33:23.128Z,3.70
2022-10-16T12:34:24.648Z,3.63
2022-10-16T12:35:36.107Z,3.15
2022-10-16T12:36:37.925Z,3.22
2022-10-16T12:37:39.617Z,3.63
2022-10-16T12:38:53.033Z,3.47
2022-10-16T12:39:56.723Z,3.25
2022-10-16T12:41:03.590Z,3.40
2022-10-16T12:42:24.171Z,3.35
2022-10-16T12:43:43.612Z,4.13
2022-10-16T12:44:46.173Z,3.78
2022-10-16T12:45:48.103Z,3.30
2022-10-16T12:46:51.806Z,3.25
2022-10-16T12:47:55.215Z,3.50
2022-10-16T12:49:15.118Z,3.55
2022-10-16T12:50:38.483Z,3.55
2022-10-16T12:51:41.368Z,3.30
2022-10-16T12:52:45.491Z,3.60
2022-10-16T12:53:47.062Z,3.10
2022-10-16T12:54:48.738Z,4.00
2022-10-16T12:56:03.150Z,3.65
2022-10-16T12:57:22.422Z,2.75
2022-10-16T12:58:32.230Z,3.13
2022-10-16T12:59:49.017Z,3.40
2022-10-16T13:01:13.299Z,3.20
2022-10-16T13:02:49.109Z,3.15
2022-10-16T13:04:35.592Z,3.13
2022-10-16T13:06:09.468Z,3.55
2022-10-16T13:07:34.194Z,3.10
2022-10-16T13:08:41.436Z,3.08
2022-10-16T13:10:03.672Z,3.45
2022-10-16T13:11:23.720Z,3.20
2022-10-16T13:12:32.139Z,3.20
2022-10-16T13:13:47.128Z,2.88
2022-10-16T13:15:26.576Z,4.05
2022-10-16T13:16:40.775Z,3.90
2022-10-16T13:17:57.240Z,4.00
2022-10-16T13:19:14.834Z,3.42
2022-10-16T13:20:22.323Z,4.20
2022-10-16T13:21:35.931Z,3.88
2022-10-16T13:23:12.283Z,3.92
2022-10-16T13:24:59.793Z,3.75
2022-10-16T13:26:16.542Z,4.35
2022-10-16T13:27:30.315Z,3.47
2022-10-16T13:28:34.289Z,3.58
2022-10-16T13:29:36.222Z,3.20
2022-10-16T13:30:45.032Z,2.95
2022-10-16T13:31:46.678Z,3.05
2022-10-16T13:32:50.968Z,3.17
2022-10-16T13:33:56.058Z,3.05
2022-10-16T13:34:57.837Z,2.95
2022-10-16T13:35:59.910Z,2.80
2022-10-16T13:37:01.566Z,2.90
2022-10-16T13:38:13.668Z,2.90
2022-10-16T13:39:35.430Z,2.70
2022-10-16T13:40:37.011Z,3.10
2022-10-16T13:41:38.902Z,2.97
2022-10-16T13:42:41.362Z,2.50
2022-10-16T13:43:46.168Z,2.85
2022-10-16T13:44:52.961Z,2.80
2022-10-16T13:46:03.947Z,2.80
2022-10-16T13:47:05.619Z,2.97
2022-10-16T13:48:13.366Z,2.90
2022-10-16T13:49:20.309Z,2.80
2022-10-16T13:50:21.890Z,2.92
2022-10-16T13:52:30.833Z,2.88
2022-10-16T13:53:34.651Z,2.95
2022-10-16T13:54:36.576Z,2.80
2022-10-16T13:55:38.122Z,2.58
2022-10-16T13:56:41.459Z,3.05
2022-10-16T13:57:43.628Z,2.60
2022-10-16T13:58:45.822Z,2.80
2022-10-16T13:59:47.383Z,2.88
2022-10-16T14:00:58.292Z,2.85
2022-10-16T14:02:01.982Z,3.03
2022-10-16T14:03:07.624Z,2.70
2022-10-16T14:04:14.556Z,2.67
2022-10-16T14:05:16.467Z,2.80
2022-10-16T14:06:23.340Z,2.70
2022-10-16T14:07:32.562Z,2.60
2022-10-16T14:08:34.284Z,2.80
2022-10-16T14:09:37.449Z,2.83
2022-10-16T14:10:39.389Z,2.90
2022-10-16T14:11:52.621Z,3.53
2022-10-16T14:12:59.385Z,3.08
2022-10-16T14:14:01.309Z,3.35
2022-10-16T14:15:03.466Z,2.80
2022-10-16T14:16:10.807Z,3.20
2022-10-16T14:17:28.594Z,3.05
2022-10-16T14:18:35.035Z,3.05
2022-10-16T14:19:37.312Z,3.40
2022-10-16T14:20:39.189Z,3.03
2022-10-16T14:21:42.133Z,3.13
2022-10-16T14:22:44.326Z,2.72
2022-10-16T14:23:45.942Z,3.03
2022-10-16T14:24:47.534Z,3.28
2022-10-16T14:25:49.116Z,3.22
2022-10-16T14:26:51.595Z,3.30
2022-10-16T14:28:21.762Z,2.95
2022-10-16T14:29:25.510Z,2.97
2022-10-16T14:30:28.796Z,2.92
2022-10-16T14:31:33.007Z,3.38
2022-10-16T14:32:34.794Z,3.38
2022-10-16T14:33:36.585Z,2.92
2022-10-16T14:34:41.118Z,3.22
2022-10-16T14:35:45.209Z,3.17
2022-10-16T14:36:46.831Z,3.28
2022-10-16T14:37:53.571Z,2.70
2022-10-16T14:39:07.054Z,2.85
2022-10-16T14:40:16.665Z,2.78
2022-10-16T14:41:22.748Z,2.40
2022-10-16T14:42:26.070Z,2.47
2022-10-16T14:43:36.759Z,2.33
2022-10-16T14:44:40.927Z,2.40
2022-10-16T14:45:44.184Z,2.28
2022-10-16T14:46:46.784Z,2.08
2022-10-16T14:47:56.940Z,2.40
2022-10-16T14:49:04.642Z,2.00
2022-10-16T14:50:09.167Z,2.30
2022-10-16T14:51:15.849Z,2.65